Time;durP1;ratioP1;P1;durP2;ratioP2;P2;SDS_P1;SDS_P2;PMS_P1;PMS_P2;Temp;Humidity;BMP_temperature;BMP_pressure;BME280_temperature;BME280_humidity;BME280_pressure;Samples;Min_cycle;Max_cycle;Signal;HPM_P1;HPM_P2
2022/03/11 00:03:23;;;;;;;9.98;6.75;;;;;;;0.64;43.12;101339.78;10412030;28;20055;-71
2022/03/11 00:08:25;;;;;;;7.72;5.80;;;;;;;0.57;42.97;101349.91;10413183;28;20033;-71
2022/03/11 00:13:27;;;;;;;8.38;6.30;;;;;;;0.69;42.58;101348.56;10432393;28;20120;-71
2022/03/11 00:18:30;;;;;;;9.32;6.35;;;;;;;0.51;42.40;101342.84;10428975;28;20088;-71
2022/03/11 00:23:32;;;;;;;8.00;6.05;;;;;;;0.42;42.99;101343.44;10396244;28;20087;-71
2022/03/11 00:28:33;;;;;;;8.45;6.63;;;;;;;0.45;42.89;101335.78;10412695;28;20044;-70
2022/03/11 00:33:36;;;;;;;7.72;6.20;;;;;;;0.58;42.62;101338.75;10430815;28;20041;-71
2022/03/11 00:38:37;;;;;;;7.75;5.85;;;;;;;0.30;43.03;101329.28;10429259;28;20044;-71
2022/03/11 00:43:39;;;;;;;9.05;6.25;;;;;;;0.39;42.74;101333.00;10428746;28;20077;-71
2022/03/11 00:48:41;;;;;;;8.73;6.45;;;;;;;0.20;42.35;101321.22;10429302;28;20038;-71
2022/03/11 00:53:43;;;;;;;6.78;6.03;;;;;;;0.19;42.40;101318.59;10433946;28;20037;-71
2022/03/11 00:58:46;;;;;;;8.10;6.18;;;;;;;0.19;42.82;101318.59;10428325;28;20037;-70
2022/03/11 01:03:48;;;;;;;7.35;6.00;;;;;;;0.32;42.31;101318.16;10428207;28;20053;-71
2022/03/11 01:08:49;;;;;;;9.85;5.90;;;;;;;0.10;42.67;101319.19;10427674;28;20041;-71
2022/03/11 01:13:51;;;;;;;8.93;6.60;;;;;;;0.14;43.13;101310.72;10429201;28;20049;-70
2022/03/11 01:18:52;;;;;;;8.05;6.00;;;;;;;0.16;42.71;101300.41;10428290;28;20046;-70
2022/03/11 01:23:54;;;;;;;6.60;5.90;;;;;;;0.01;42.57;101292.19;10429229;28;20455;-70
2022/03/11 01:28:56;;;;;;;8.00;6.53;;;;;;;-0.18;42.55;101290.72;10427948;28;20517;-71
2022/03/11 01:33:58;;;;;;;8.13;5.88;;;;;;;0.05;42.30;101283.69;10428469;28;20107;-70
2022/03/11 01:38:59;;;;;;;7.13;5.70;;;;;;;0.03;41.90;101275.00;10411128;28;20495;-69
2022/03/11 01:44:06;;;;;;;8.38;6.55;;;;;;;-0.06;42.02;101267.84;10409184;28;20494;-70
2022/03/11 01:49:11;;;;;;;6.77;6.03;;;;;;;-0.09;41.76;101275.50;10425721;28;20120;-71
2022/03/11 01:54:13;;;;;;;10.43;5.80;;;;;;;0.05;41.20;101268.19;10425735;28;20037;-71
2022/03/11 01:59:15;;;;;;;6.82;5.53;;;;;;;-0.11;41.26;101259.94;10428073;28;20076;-71
2022/03/11 02:04:16;;;;;;;6.85;5.75;;;;;;;-0.23;41.68;101262.13;10407740;28;20049;-71
2022/03/11 02:09:18;;;;;;;8.35;5.90;;;;;;;-0.34;41.28;101256.66;10393491;28;20050;-72
2022/03/11 02:14:20;;;;;;;9.65;5.93;;;;;;;-0.21;41.26;101252.75;10428926;28;20045;-71
2022/03/11 02:19:23;;;;;;;8.52;6.63;;;;;;;-0.37;41.00;101255.66;10412621;28;20046;-71
2022/03/11 02:24:27;;;;;;;7.30;6.13;;;;;;;-0.32;41.58;101256.69;10428529;28;20068;-70
2022/03/11 02:29:29;;;;;;;9.75;6.03;;;;;;;-0.10;40.41;101256.53;10409297;28;20076;-71
2022/03/11 02:34:31;;;;;;;13.80;6.25;;;;;;;-0.20;40.81;101251.03;10425599;28;20060;-71
2022/03/11 02:39:33;;;;;;;8.90;5.78;;;;;;;-0.28;40.21;101245.63;10406604;28;20045;-70
2022/03/11 02:44:35;;;;;;;6.72;5.80;;;;;;;-0.27;40.36;101237.94;10408978;28;20120;-71
2022/03/11 02:49:36;;;;;;;7.93;6.10;;;;;;;-0.41;40.43;101230.56;10425147;28;20033;-70
2022/03/11 02:54:38;;;;;;;9.80;6.57;;;;;;;-0.48;40.07;101229.50;10424624;28;20557;-71
2022/03/11 02:59:39;;;;;;;8.05;6.30;;;;;;;-0.45;40.08;101227.00;10424323;28;20050;-71
2022/03/11 03:04:41;;;;;;;8.02;5.70;;;;;;;-0.72;40.69;101226.09;10429552;28;20053;-71
2022/03/11 03:09:43;;;;;;;7.95;5.53;;;;;;;-0.60;40.51;101229.97;10406434;28;20437;-72
2022/03/11 03:14:44;;;;;;;12.18;6.53;;;;;;;-0.53;40.28;101225.91;10423258;28;20075;-71
2022/03/11 03:19:47;;;;;;;9.93;6.53;;;;;;;-0.53;40.26;101229.34;10409921;28;20519;-71
2022/03/11 03:24:49;;;;;;;7.05;5.50;;;;;;;-0.56;39.25;101218.03;10436522;28;20071;-71
2022/03/11 03:29:51;;;;;;;10.32;6.50;;;;;;;-0.74;39.70;101223.50;10414268;28;20041;-71
2022/03/11 03:34:52;;;;;;;7.25;5.38;;;;;;;-0.62;38.65;101225.56;10430154;28;20076;-71
2022/03/11 03:39:54;;;;;;;8.90;5.63;;;;;;;-0.68;38.21;101218.50;10430601;28;20100;-73
2022/03/11 03:44:56;;;;;;;7.45;5.50;;;;;;;-0.49;38.57;101214.81;10431620;28;20049;-71
2022/03/11 03:49:58;;;;;;;11.20;6.00;;;;;;;-0.62;38.08;101218.72;10431822;28;20487;-73
2022/03/11 03:55:00;;;;;;;9.90;5.80;;;;;;;-0.83;37.87;101224.06;10414357;28;20046;-72
2022/03/11 04:00:03;;;;;;;9.68;5.68;;;;;;;-0.69;37.57;101202.97;10431300;28;20053;-72
2022/03/11 04:05:14;;;;;;;6.75;5.30;;;;;;;-0.89;38.05;101210.06;10431427;28;20415;-72
2022/03/11 04:10:18;;;;;;;6.85;5.35;;;;;;;-0.85;38.21;101207.63;10415060;28;20356;-72
2022/03/11 04:15:19;;;;;;;7.82;5.53;;;;;;;-0.78;37.60;101211.31;10452287;22;20039;-71
2022/03/11 04:20:21;;;;;;;7.07;4.53;;;;;;;-0.93;37.32;101209.09;10505823;28;20037;-72
2022/03/11 04:25:23;;;;;;;9.10;5.75;;;;;;;-0.83;37.65;101215.44;10488835;28;20052;-72
2022/03/11 04:30:25;;;;;;;10.35;5.55;;;;;;;-0.92;37.91;101202.22;10505555;28;20045;-71
2022/03/11 04:35:27;;;;;;;5.38;4.85;;;;;;;-0.98;38.19;101202.88;10506207;28;20048;-71
2022/03/11 04:40:28;;;;;;;6.57;5.47;;;;;;;-0.92;38.26;101199.66;10505845;28;20501;-71
2022/03/11 04:45:30;;;;;;;6.82;4.78;;;;;;;-1.07;37.93;101207.72;10505549;28;20505;-72
2022/03/11 04:50:32;;;;;;;5.93;4.68;;;;;;;-1.15;37.95;101207.50;10505132;28;20040;-71
2022/03/11 04:55:34;;;;;;;10.25;5.85;;;;;;;-1.28;38.96;101200.16;10505559;28;20045;-71
2022/03/11 05:00:35;;;;;;;6.45;5.43;;;;;;;-1.21;38.84;101194.38;10504872;28;20512;-71
2022/03/11 05:05:37;;;;;;;8.18;6.00;;;;;;;-1.25;39.21;101195.06;10504603;28;20048;-73
2022/03/11 05:10:39;;;;;;;7.80;5.68;;;;;;;-1.11;38.81;101188.69;10503517;28;20040;-71
2022/03/11 05:15:43;;;;;;;6.90;4.22;;;;;;;-1.34;38.98;101205.09;10503573;28;20048;-71
2022/03/11 05:20:45;;;;;;;7.28;5.65;;;;;;;-1.21;39.15;101194.38;10504125;28;20044;-73
2022/03/11 05:25:47;;;;;;;7.15;5.65;;;;;;;-1.44;39.34;101206.47;10503803;28;20051;-72
2022/03/11 05:30:49;;;;;;;7.57;5.40;;;;;;;-1.47;39.54;101216.66;10485143;28;20044;-72
2022/03/11 05:35:51;;;;;;;10.73;5.93;;;;;;;-1.32;39.67;101226.66;10502374;28;20045;-72
2022/03/11 05:40:52;;;;;;;7.15;6.05;;;;;;;-1.22;39.87;101214.97;10502668;28;20567;-72
2022/03/11 05:45:54;;;;;;;7.00;5.07;;;;;;;-1.35;40.34;101221.38;10502820;28;20044;-72
2022/03/11 05:50:56;;;;;;;8.30;6.30;;;;;;;-1.25;39.97;101214.84;10502796;28;20068;-72
2022/03/11 05:55:57;;;;;;;11.98;6.07;;;;;;;-1.43;40.28;101231.41;10501462;28;20041;-71
2022/03/11 06:00:59;;;;;;;13.85;6.07;;;;;;;-1.10;39.81;101228.28;10501093;28;20040;-72
2022/03/11 06:06:01;;;;;;;8.32;5.50;;;;;;;-1.21;40.23;101239.94;10501196;28;20055;-72
2022/03/11 06:11:02;;;;;;;6.60;5.90;;;;;;;-1.19;40.56;101244.34;10501588;28;20441;-72
2022/03/11 06:16:04;;;;;;;8.52;5.40;;;;;;;-0.51;39.72;101242.31;10501468;28;20464;-72
2022/03/11 06:21:07;;;;;;;7.22;5.82;;;;;;;0.39;37.90;101242.47;10501114;28;20486;-73
2022/03/11 06:26:09;;;;;;;6.93;5.35;;;;;;;1.24;36.58;101243.94;10482678;28;20059;-73
2022/03/11 06:31:11;;;;;;;7.43;5.90;;;;;;;0.86;37.12;101242.94;10500455;28;20131;-73
2022/03/11 06:36:13;;;;;;;7.43;6.22;;;;;;;1.16;37.34;101247.19;10500616;28;20045;-72
2022/03/11 06:41:14;;;;;;;9.60;6.85;;;;;;;0.83;37.41;101249.72;10499986;28;20040;-73
2022/03/11 06:46:17;;;;;;;7.97;6.15;;;;;;;0.43;38.60;101246.03;10500486;28;20377;-71
2022/03/11 06:51:19;;;;;;;8.18;6.03;;;;;;;0.55;38.06;101258.44;10481946;28;20045;-72
2022/03/11 06:56:20;;;;;;;8.00;6.10;;;;;;;0.63;38.36;101250.06;10500133;28;20040;-71
2022/03/11 07:01:24;;;;;;;11.15;6.88;;;;;;;1.23;37.44;101252.53;10481358;28;20048;-72
2022/03/11 07:06:25;;;;;;;6.78;6.07;;;;;;;1.18;37.56;101248.94;10499708;28;20498;-71
2022/03/11 07:11:27;;;;;;;7.35;5.45;;;;;;;0.94;37.97;101240.56;10499610;28;20498;-72
2022/03/11 07:16:29;;;;;;;12.27;6.15;;;;;;;1.28;37.52;101234.50;10499284;28;20098;-72
2022/03/11 07:21:30;;;;;;;6.93;5.78;;;;;;;1.33;37.61;101248.47;10481506;28;20041;-72
2022/03/11 07:26:33;;;;;;;7.43;5.88;;;;;;;1.25;37.64;101247.41;10499242;28;20053;-72
2022/03/11 07:31:38;;;;;;;8.15;6.45;;;;;;;1.00;38.33;101243.28;10499951;28;20115;-72
2022/03/11 07:36:41;;;;;;;6.88;5.30;;;;;;;0.98;39.06;101251.03;10498597;28;20036;-73
2022/03/11 07:41:42;;;;;;;6.30;5.70;;;;;;;1.24;38.12;101254.31;10498546;28;20037;-73
2022/03/11 07:46:44;;;;;;;10.88;5.93;;;;;;;1.26;38.50;101257.78;10498452;28;20052;-72
2022/03/11 07:51:46;;;;;;;8.68;6.22;;;;;;;1.24;38.30;101254.31;10498094;28;20044;-72
2022/03/11 07:56:47;;;;;;;8.52;4.93;;;;;;;1.24;38.24;101262.06;10497649;28;20052;-72
2022/03/11 08:01:49;;;;;;;8.32;6.43;;;;;;;1.29;38.64;101257.00;10481047;28;20417;-72
2022/03/11 08:06:51;;;;;;;9.18;5.70;;;;;;;1.49;37.97;101262.69;10461195;28;20068;-74
2022/03/11 08:11:52;;;;;;;7.15;6.40;;;;;;;1.46;38.14;101263.50;10463876;28;20041;-72
2022/03/11 08:16:54;;;;;;;8.10;5.85;;;;;;;1.62;38.03;101262.13;10463787;28;20136;-72
2022/03/11 08:21:56;;;;;;;7.75;5.80;;;;;;;1.64;37.63;101260.47;10471019;28;20098;-72
2022/03/11 08:26:58;;;;;;;11.13;6.60;;;;;;;1.72;37.72;101258.91;10505045;28;20106;-72
2022/03/11 08:32:00;;;;;;;8.43;5.88;;;;;;;2.06;37.90;101256.25;10504835;28;20040;-72
2022/03/11 08:37:03;;;;;;;8.30;6.95;;;;;;;2.51;36.97;101258.94;10504916;28;20460;-72
2022/03/11 08:42:05;;;;;;;9.68;6.15;;;;;;;2.17;38.14;101253.06;10504803;28;20048;-72
2022/03/11 08:47:08;;;;;;;7.32;6.20;;;;;;;2.66;36.58;101246.28;10504180;28;20044;-72
2022/03/11 08:52:10;;;;;;;10.50;6.47;;;;;;;2.48;37.08;101245.91;10507479;28;20097;-72
2022/03/11 08:57:12;;;;;;;9.00;6.25;;;;;;;2.52;36.10;101260.69;10505976;28;20044;-72
2022/03/11 09:02:15;;;;;;;8.27;6.85;;;;;;;2.59;36.48;101259.09;10505379;28;20461;-72
2022/03/11 09:07:20;;;;;;;8.13;6.17;;;;;;;2.78;36.30;101256.00;10506667;28;20044;-72
2022/03/11 09:12:22;;;;;;;6.30;5.68;;;;;;;2.91;36.30;101262.31;10505073;28;20052;-71
2022/03/11 09:17:29;;;;;;;8.97;6.43;;;;;;;3.23;35.77;101270.69;10502967;28;20045;-71
2022/03/11 09:22:30;;;;;;;8.82;6.30;;;;;;;3.29;35.45;101257.84;10486160;28;20287;-72
2022/03/11 09:27:33;;;;;;;8.27;7.07;;;;;;;3.44;35.44;101265.00;10504027;28;20455;-72
2022/03/11 09:32:37;;;;;;;7.60;5.82;;;;;;;3.54;35.14;101257.41;10486523;28;20093;-73
2022/03/11 09:37:39;;;;;;;7.03;5.95;;;;;;;3.74;34.71;101259.44;10486349;28;20048;-72
2022/03/11 09:42:41;;;;;;;7.10;6.40;;;;;;;3.93;33.98;101265.78;10483882;28;20047;-73
2022/03/11 09:47:43;;;;;;;6.97;5.90;;;;;;;3.92;34.03;101266.66;10503519;28;20491;-72
2022/03/11 09:52:47;;;;;;;6.82;6.13;;;;;;;4.13;32.99;101268.69;10501522;28;20040;-72
2022/03/11 09:57:50;;;;;;;6.60;5.13;;;;;;;4.39;32.30;101267.31;10503045;28;20060;-73
2022/03/11 10:02:52;;;;;;;6.05;5.20;;;;;;;4.33;31.57;101281.97;10487787;28;20044;-71
2022/03/11 10:07:59;;;;;;;5.22;4.30;;;;;;;4.60;30.80;101281.44;10502501;28;20490;-72
2022/03/11 10:13:02;;;;;;;6.45;5.00;;;;;;;4.64;31.30;101283.25;10503078;28;20098;-72
2022/03/11 10:18:08;;;;;;;6.63;5.13;;;;;;;4.59;30.16;101261.47;10517127;22;20056;-71
2022/03/11 10:23:12;;;;;;;6.15;5.22;;;;;;;4.82;30.81;101270.44;10506228;28;20044;-72
2022/03/11 10:28:15;;;;;;;5.55;5.03;;;;;;;4.89;30.62;101277.47;10509009;28;20051;-71
2022/03/11 10:33:20;;;;;;;6.05;5.13;;;;;;;5.17;29.85;101256.91;10495170;28;20048;-72
2022/03/11 10:38:26;;;;;;;6.00;5.40;;;;;;;5.40;28.95;101251.91;10509227;28;20048;-72
2022/03/11 10:43:30;;;;;;;7.43;5.70;;;;;;;5.42;29.22;101265.84;10521658;28;20048;-72
2022/03/11 10:48:51;;;;;;;6.80;6.10;;;;;;;5.34;29.54;101257.94;10550131;28;20044;-72
2022/03/11 10:53:57;;;;;;;7.78;5.13;;;;;;;5.83;28.92;101256.59;10537807;28;20445;-72
2022/03/11 10:59:00;;;;;;;5.60;5.07;;;;;;;6.05;29.48;101244.59;10552287;28;20079;-73
2022/03/11 11:04:05;;;;;;;6.97;5.78;;;;;;;5.80;29.48;101255.75;10553597;28;20048;-73
2022/03/11 11:09:09;;;;;;;7.57;5.82;;;;;;;5.85;29.70;101243.59;10553099;28;20040;-72
2022/03/11 11:14:11;;;;;;;7.68;6.03;;;;;;;6.11;29.80;101235.97;10554606;28;20066;-71
2022/03/11 11:19:17;;;;;;;6.40;5.63;;;;;;;6.25;29.01;101212.53;10551239;28;20041;-72
2022/03/11 11:24:21;;;;;;;8.43;5.18;;;;;;;6.38;28.60;101218.69;10531882;28;20039;-72
2022/03/11 11:29:26;;;;;;;6.68;5.68;;;;;;;6.55;29.89;101215.28;10547818;28;20040;-71
2022/03/11 11:34:30;;;;;;;7.07;5.93;;;;;;;6.47;29.80;101209.16;10534542;28;20044;-72
2022/03/11 11:39:42;;;;;;;6.55;5.95;;;;;;;6.55;29.60;101202.22;10550545;28;20350;-71
2022/03/11 11:44:45;;;;;;;7.95;6.00;;;;;;;6.91;28.57;101190.09;10560413;28;20055;-73
2022/03/11 11:49:50;;;;;;;5.60;5.03;;;;;;;6.80;29.00;101192.69;10558025;28;20047;-72
2022/03/11 11:54:51;;;;;;;16.35;5.68;;;;;;;6.70;27.87;101182.22;10559894;28;20134;-72
2022/03/11 11:59:54;;;;;;;5.75;5.25;;;;;;;7.03;28.43;101179.63;10560519;28;20082;-73
2022/03/11 12:04:55;;;;;;;9.52;5.97;;;;;;;6.62;27.96;101179.56;10538799;28;20040;-72
2022/03/11 12:10:00;;;;;;;6.40;5.72;;;;;;;6.90;28.55;101163.94;10539806;28;20044;-72
2022/03/11 12:15:05;;;;;;;9.52;6.32;;;;;;;6.99;28.45;101166.56;10558295;28;20040;-73
2022/03/11 12:20:35;;;;;;;6.25;5.60;;;;;;;7.28;28.37;101151.75;10562778;28;20042;-73
2022/03/11 12:25:45;;;;;;;6.50;5.43;;;;;;;7.31;28.52;101151.78;10560412;28;20118;-72
2022/03/11 12:30:47;;;;;;;6.00;5.07;;;;;;;7.00;26.88;101143.06;10559394;28;20032;-73
2022/03/11 12:35:52;;;;;;;6.00;5.40;;;;;;;6.63;27.88;101133.41;10559489;28;20104;-73
2022/03/11 12:40:59;;;;;;;6.50;4.88;;;;;;;6.80;28.26;101140.41;10562103;28;20058;-71
2022/03/11 12:46:03;;;;;;;7.38;5.75;;;;;;;6.77;29.46;101122.13;10555816;28;20125;-71
2022/03/11 12:51:07;;;;;;;5.63;5.05;;;;;;;6.87;28.96;101119.53;10551879;28;20519;-73
2022/03/11 12:56:09;;;;;;;6.15;5.43;;;;;;;6.53;29.11;101124.69;10534631;28;20485;-72
2022/03/11 13:01:12;;;;;;;5.50;4.95;;;;;;;6.71;28.29;101116.00;10535836;28;20066;-73
2022/03/11 13:06:15;;;;;;;5.75;5.07;;;;;;;6.67;26.83;101111.66;10535029;28;20055;-73
2022/03/11 13:11:17;;;;;;;5.80;5.18;;;;;;;6.57;27.48;101103.81;10535829;28;20040;-73
2022/03/11 13:16:21;;;;;;;7.05;5.90;;;;;;;6.55;28.55;101105.56;10534697;28;20044;-72
2022/03/11 13:21:23;;;;;;;5.57;5.07;;;;;;;6.73;28.17;101102.09;10534549;28;20085;-73
2022/03/11 13:26:25;;;;;;;6.70;5.55;;;;;;;6.92;28.49;101096.88;10554944;28;20101;-72
2022/03/11 13:31:29;;;;;;;6.68;6.05;;;;;;;6.88;27.41;101100.34;10555508;28;20540;-72
2022/03/11 13:36:58;;;;;;;6.07;5.38;;;;;;;6.75;28.85;101084.66;10535236;28;20054;-73
2022/03/11 13:42:00;;;;;;;6.60;5.95;;;;;;;6.95;27.95;101083.78;10516377;28;20036;-72
2022/03/11 13:47:10;;;;;;;6.47;5.60;;;;;;;7.00;29.17;101088.16;10536832;28;20062;-72
2022/03/11 13:52:13;;;;;;;9.75;5.70;;;;;;;6.90;26.91;101072.47;10551755;28;20067;-73
2022/03/11 13:57:25;;;;;;;10.45;6.35;;;;;;;7.12;26.89;101075.94;10550734;28;20524;-72
2022/03/11 14:02:30;;;;;;;9.88;6.35;;;;;;;6.87;26.65;101068.13;10550609;28;20044;-71
2022/03/11 14:07:33;;;;;;;10.98;8.27;;;;;;;7.02;27.69;101075.94;10551750;28;20335;-72
2022/03/11 14:12:35;;;;;;;7.88;7.10;;;;;;;7.08;27.72;101081.19;10550200;28;20035;-72
2022/03/11 14:17:39;;;;;;;7.03;6.32;;;;;;;7.07;26.65;101070.72;10533703;28;20139;-72
2022/03/11 14:22:41;;;;;;;19.52;7.20;;;;;;;7.10;27.64;101068.09;10532698;28;20051;-72
2022/03/11 14:27:43;;;;;;;8.23;6.72;;;;;;;7.19;27.84;101049.78;10531140;28;20047;-71
2022/03/11 14:32:45;;;;;;;6.05;5.40;;;;;;;7.30;27.27;101049.75;10549845;28;20067;-72
2022/03/11 14:37:47;;;;;;;9.05;6.63;;;;;;;7.27;27.26;101037.56;10529247;28;20504;-72
2022/03/11 14:42:49;;;;;;;7.35;6.63;;;;;;;7.20;26.77;101040.19;10530441;28;20048;-73
2022/03/11 14:47:50;;;;;;;7.22;5.93;;;;;;;7.06;27.14;101042.84;10531250;28;20036;-73
2022/03/11 14:52:52;;;;;;;6.75;6.05;;;;;;;7.14;26.83;101033.25;10532566;28;20036;-72
2022/03/11 14:57:54;;;;;;;6.15;5.55;;;;;;;7.15;26.99;101024.50;10546837;28;20044;-72
2022/03/11 15:02:56;;;;;;;7.38;5.90;;;;;;;7.22;27.58;101035.84;10547143;28;20044;-71
2022/03/11 15:07:58;;;;;;;6.97;5.60;;;;;;;6.81;27.25;101024.53;10527396;28;20059;-71
2022/03/11 15:13:00;;;;;;;6.32;5.68;;;;;;;6.84;27.12;101026.31;10530839;28;20509;-71
2022/03/11 15:18:05;;;;;;;8.05;6.15;;;;;;;6.77;27.72;101030.69;10522690;28;20044;-70
2022/03/11 15:23:07;;;;;;;9.52;6.10;;;;;;;6.52;27.81;101035.00;10513735;28;20040;-70
2022/03/11 15:28:09;;;;;;;6.40;5.70;;;;;;;6.72;27.99;101021.06;10496585;28;20457;-72
2022/03/11 15:33:12;;;;;;;6.68;6.10;;;;;;;6.57;28.01;101012.38;10498208;28;20132;-72
2022/03/11 15:38:15;;;;;;;6.40;5.80;;;;;;;6.82;28.37;101022.84;10496754;28;20437;-72
2022/03/11 15:43:16;;;;;;;6.03;5.43;;;;;;;6.44;27.59;101015.84;10504500;28;20029;-71
2022/03/11 15:48:19;;;;;;;6.55;5.82;;;;;;;6.36;28.23;101014.97;10493868;28;20455;-71
2022/03/11 15:53:21;;;;;;;10.32;6.47;;;;;;;6.26;28.55;101016.69;10514155;28;20044;-73
2022/03/11 15:58:22;;;;;;;6.90;6.30;;;;;;;6.20;29.20;101019.31;10498309;28;20044;-71
2022/03/11 16:03:24;;;;;;;7.70;7.00;;;;;;;6.19;30.14;101025.38;10511810;28;20052;-72
2022/03/11 16:08:29;;;;;;;8.30;7.50;;;;;;;6.01;30.64;101020.13;10514441;28;20040;-72
2022/03/11 16:13:31;;;;;;;7.88;7.25;;;;;;;5.79;30.82;101022.63;10514343;28;20127;-72
2022/03/11 16:18:33;;;;;;;8.15;7.20;;;;;;;5.80;30.65;101013.97;10488832;22;20050;-72
2022/03/11 16:23:39;;;;;;;5.90;5.38;;;;;;;5.81;31.04;101012.22;10427482;28;20045;-72
2022/03/11 16:28:41;;;;;;;7.35;6.65;;;;;;;5.57;31.63;101007.75;10407248;28;20132;-72
2022/03/11 16:33:50;;;;;;;8.82;7.15;;;;;;;5.42;31.48;101005.09;10425164;28;20079;-73
2022/03/11 16:38:52;;;;;;;7.70;7.00;;;;;;;5.36;31.96;101011.16;10425624;28;20049;-73
2022/03/11 16:43:54;;;;;;;8.15;7.40;;;;;;;5.37;31.69;101019.84;10425748;28;20060;-72
2022/03/11 16:48:56;;;;;;;13.20;8.07;;;;;;;5.28;31.42;101026.75;10407636;28;20049;-73
2022/03/11 16:53:57;;;;;;;8.32;7.40;;;;;;;5.32;31.70;101027.66;10407447;28;20068;-71
2022/03/11 16:58:59;;;;;;;8.75;7.82;;;;;;;5.00;32.08;101030.03;10424550;28;20132;-71
2022/03/11 17:04:09;;;;;;;11.45;7.25;;;;;;;5.02;31.90;101033.53;10407324;28;20037;-72
2022/03/11 17:09:12;;;;;;;11.50;7.88;;;;;;;5.02;32.03;101036.13;10424110;28;20458;-73
2022/03/11 17:14:17;;;;;;;8.48;7.60;;;;;;;4.84;33.07;101034.28;10424537;28;20092;-72
2022/03/11 17:19:20;;;;;;;11.65;7.13;;;;;;;4.78;32.57;101042.03;10423967;28;20430;-73
2022/03/11 17:24:22;;;;;;;8.70;6.95;;;;;;;4.86;32.37;101032.53;10424217;28;20052;-72
2022/03/11 17:29:23;;;;;;;10.65;7.72;;;;;;;4.49;32.96;101032.25;10404968;28;20057;-72
2022/03/11 17:34:25;;;;;;;8.38;7.57;;;;;;;4.64;32.57;101033.22;10422204;28;20041;-71
2022/03/11 17:39:27;;;;;;;9.65;6.82;;;;;;;4.39;32.61;101032.16;10422740;28;20056;-72
2022/03/11 17:44:28;;;;;;;8.77;7.03;;;;;;;4.49;33.01;101023.56;10405798;28;20407;-73
2022/03/11 17:49:30;;;;;;;8.32;7.30;;;;;;;4.39;32.61;101034.75;10424655;28;20522;-72
2022/03/11 17:54:32;;;;;;;8.00;7.22;;;;;;;4.50;32.21;101026.19;10425190;28;20566;-71
2022/03/11 17:59:34;;;;;;;9.65;5.97;;;;;;;4.40;32.53;101026.09;10423168;28;20460;-72
2022/03/11 18:04:37;;;;;;;8.07;6.80;;;;;;;4.30;32.74;101025.13;10423650;28;20116;-72
2022/03/11 18:09:41;;;;;;;11.18;6.95;;;;;;;4.22;32.31;101025.06;10423036;28;20096;-73
2022/03/11 18:14:44;;;;;;;8.25;7.07;;;;;;;4.15;32.79;101020.63;10388635;28;20045;-73
2022/03/11 18:19:46;;;;;;;10.07;6.90;;;;;;;3.96;32.83;101016.97;10422668;28;20041;-72
2022/03/11 18:24:48;;;;;;;7.63;6.32;;;;;;;4.06;33.04;101017.94;10424567;28;20038;-73
2022/03/11 18:29:51;;;;;;;6.68;6.07;;;;;;;3.99;32.80;101017.03;10408331;28;20137;-73
2022/03/11 18:34:54;;;;;;;9.80;6.50;;;;;;;3.71;33.13;101009.75;10424029;28;20123;-72
2022/03/11 18:39:57;;;;;;;7.20;6.43;;;;;;;3.87;32.75;101013.41;10422585;28;20491;-73
2022/03/11 18:45:00;;;;;;;7.70;6.65;;;;;;;3.59;33.64;101007.03;10423361;28;20395;-73
2022/03/11 18:50:03;;;;;;;8.38;6.78;;;;;;;3.76;33.60;101010.66;10405019;28;20087;-73
2022/03/11 18:55:05;;;;;;;8.60;6.60;;;;;;;3.74;33.12;101012.38;10405783;28;20041;-74
2022/03/11 19:00:08;;;;;;;9.80;6.82;;;;;;;3.51;34.00;101015.59;10404969;28;20056;-72
2022/03/11 19:05:10;;;;;;;8.45;7.45;;;;;;;3.38;33.78;101010.22;10406608;28;20495;-74
2022/03/11 19:10:12;;;;;;;8.63;6.75;;;;;;;3.29;33.26;101008.38;10424842;28;20049;-72
2022/03/11 19:15:14;;;;;;;8.23;7.45;;;;;;;3.46;33.15;101017.25;10407079;28;20050;-71
2022/03/11 19:20:19;;;;;;;8.73;6.72;;;;;;;3.37;33.63;101017.13;10425894;28;20049;-73
2022/03/11 19:25:24;;;;;;;7.20;6.50;;;;;;;3.42;33.43;101014.59;10393715;28;20056;-73
2022/03/11 19:30:25;;;;;;;7.93;6.05;;;;;;;3.30;33.17;101012.69;10426098;28;20084;-74
2022/03/11 19:35:29;;;;;;;7.43;6.72;;;;;;;3.36;32.84;101010.16;10425521;28;20045;-73
2022/03/11 19:40:34;;;;;;;7.60;6.90;;;;;;;3.40;32.76;101022.34;10428920;28;20140;-73
2022/03/11 19:45:37;;;;;;;10.38;6.47;;;;;;;3.35;32.26;101024.03;10408144;28;20128;-72
2022/03/11 19:50:42;;;;;;;6.97;6.28;;;;;;;3.22;32.79;101027.31;10409835;28;20097;-74
2022/03/11 19:55:46;;;;;;;7.32;5.97;;;;;;;3.35;31.73;101026.63;10409342;28;20042;-74
2022/03/11 20:00:49;;;;;;;5.88;5.28;;;;;;;3.05;32.44;101040.03;10423936;28;20406;-73
2022/03/11 20:05:51;;;;;;;10.82;6.20;;;;;;;3.12;31.59;101028.03;10430583;28;20046;-74
2022/03/11 20:10:52;;;;;;;6.72;5.15;;;;;;;3.14;30.73;101034.97;10428929;28;20048;-73
2022/03/11 20:15:54;;;;;;;6.40;5.20;;;;;;;3.17;30.83;101036.78;10411934;28;20406;-73
2022/03/11 20:20:56;;;;;;;9.50;8.25;;;;;;;3.20;30.00;101036.81;10417173;28;20049;-73
2022/03/11 20:25:58;;;;;;;6.07;5.15;;;;;;;3.12;30.10;101044.50;10417031;28;20042;-73
2022/03/11 20:31:03;;;;;;;5.80;4.78;;;;;;;3.18;29.87;101044.56;10431436;28;20041;-74
2022/03/11 20:36:06;;;;;;;5.10;4.60;;;;;;;2.94;30.53;101041.63;10432975;28;20077;-73
2022/03/11 20:41:08;;;;;;;6.20;4.93;;;;;;;2.88;30.75;101047.59;10411645;28;20141;-74
2022/03/11 20:46:09;;;;;;;8.25;7.45;;;;;;;2.90;30.57;101045.91;10431586;28;20076;-74
2022/03/11 20:51:14;;;;;;;5.97;5.38;;;;;;;2.96;30.06;101051.16;10430089;28;20044;-74
2022/03/11 20:56:17;;;;;;;7.75;5.55;;;;;;;2.93;30.15;101039.88;10411879;28;20045;-73
2022/03/11 21:01:23;;;;;;;5.63;5.03;;;;;;;2.91;30.44;101037.25;10411553;28;20049;-73
2022/03/11 21:06:25;;;;;;;6.63;5.53;;;;;;;2.87;30.86;101045.84;10430161;28;20410;-74
2022/03/11 21:11:27;;;;;;;9.13;5.97;;;;;;;2.63;31.72;101037.66;10410262;28;20594;-72
2022/03/11 21:16:29;;;;;;;6.00;5.32;;;;;;;2.70;31.93;101032.63;10429848;28;20045;-73
2022/03/11 21:21:34;;;;;;;19.65;6.13;;;;;;;2.64;31.68;101029.03;10428750;28;20055;-74
2022/03/11 21:26:38;;;;;;;7.18;6.43;;;;;;;2.55;31.38;101027.16;10410728;28;20057;-73
2022/03/11 21:31:41;;;;;;;8.07;5.63;;;;;;;2.71;31.44;101028.28;10411101;28;20080;-72
2022/03/11 21:36:44;;;;;;;8.40;6.10;;;;;;;2.48;31.92;101033.09;10429547;28;20105;-72
2022/03/11 21:41:46;;;;;;;7.78;5.95;;;;;;;2.35;32.63;101023.38;10409289;28;20046;-72
2022/03/11 21:46:48;;;;;;;8.25;6.07;;;;;;;2.58;31.77;101022.03;10407790;28;20112;-73
2022/03/11 21:51:49;;;;;;;12.10;7.18;;;;;;;2.57;31.84;101025.47;10425490;28;20045;-73
2022/03/11 21:56:58;;;;;;;7.93;7.13;;;;;;;2.53;32.47;101014.16;10424791;28;20052;-74
2022/03/11 22:01:59;;;;;;;7.53;6.78;;;;;;;2.48;31.58;101020.13;10406923;28;20115;-72
2022/03/11 22:07:05;;;;;;;11.43;6.22;;;;;;;2.55;31.36;101003.78;10407954;28;20060;-72
2022/03/11 22:12:08;;;;;;;6.22;5.53;;;;;;;2.55;31.23;101008.13;10425449;28;20046;-73
2022/03/11 22:17:12;;;;;;;6.40;5.43;;;;;;;2.58;30.92;101005.56;10423383;28;20052;-72
2022/03/11 22:22:14;;;;;;;13.13;5.57;;;;;;;2.60;30.51;101003.88;10422081;28;20395;-73
2022/03/11 22:27:18;;;;;;;5.93;4.78;;;;;;;2.63;30.13;100994.41;10401431;28;20125;-73
2022/03/11 22:32:22;;;;;;;8.75;5.45;;;;;;;2.75;29.43;100998.94;10419588;28;20046;-72
2022/03/11 22:37:27;;;;;;;7.03;5.30;;;;;;;2.77;29.03;100998.09;10402611;28;20053;-72
2022/03/11 22:42:28;;;;;;;5.72;4.57;;;;;;;2.75;28.61;100996.34;10420564;28;20038;-72
2022/03/11 22:47:35;;;;;;;5.38;4.88;;;;;;;2.69;28.96;101006.59;10420395;28;20131;-72
2022/03/11 22:52:39;;;;;;;6.37;5.77;;;;;;;2.62;29.05;101004.78;10402042;28;20038;-71
2022/03/11 22:57:45;;;;;;;6.50;4.50;;;;;;;2.68;28.87;101000.53;10402444;28;20292;-72
2022/03/11 23:02:59;;;;;;;6.00;4.97;;;;;;;2.53;29.42;101003.78;10420948;28;20044;-73
2022/03/11 23:13:30;;;;;;;5.93;4.93;;;;;;;2.55;29.92;100996.00;10420306;28;20042;-72
2022/03/11 23:18:32;;;;;;;6.05;5.45;;;;;;;2.51;29.67;100986.41;10401763;28;20041;-72
2022/03/11 23:23:34;;;;;;;6.38;5.78;;;;;;;2.53;30.30;100987.34;10402043;28;20124;-71
2022/03/11 23:28:36;;;;;;;6.25;5.65;;;;;;;2.25;30.65;100985.97;10400055;28;20046;-72